METAR AND TAF INFORMATION
METAR FOR CYYC
CYYC 161100Z 30021KT 15SM FEW042 SCT120 BKN160 07/02 A2970 RMK SC2AC2AC2 SLP083 DENSITY ALT 3900FT
CYYC 161000Z 30016KT 10SM FEW043 BKN120 07/04 A2970 RMK SC2AC5 SLP076
CYYC 160900Z 31017KT 10SM FEW042 OVC082 07/05 A2969 RMK SC1AC8 SC TR SLP070 DENSITY ALT 3900FT

TAF CYYC 161149Z 1612/1712 32020G30KT P6SM FEW040
BECMG 1613/1615 P6SM -SHRA BKN012
FM161500 35018G28KT P6SM -SHRA SCT012 BKN030
TEMPO 1615/1621 5SM -SHRA BR BKN012 OVC025
FM162100 35012G22KT P6SM BKN030
TEMPO 1622/1702 VRB20G35KT 5SM TSRAGR OVC025CB
FM170300 03010KT P6SM FEW015 BKN025
TEMPO 1704/1708 P6SM -SHRA BKN015
BECMG 1704/1706 31005KT
FM170900 34005KT P6SM FEW020
TEMPO 1709/1712 BKN020 RMK NXT FCST BY 161500Z

 AIRPORT MAP

 RUNWAY INFORMATION
Runway 08 Runway length 6200 ft Runway width 150 ft
Runway elevation 3531 ft Runway displaced threshold 0 ft Runway heading 90
Runway 26 Runway length 6200 ft Runway width 150 ft
Runway elevation 3557 ft Runway displaced threshold 0 ft Runway heading 270
Runway 11 Runway length 8000 ft Runway width 200 ft
Runway elevation 3547 ft Runway displaced threshold 0 ft Runway heading 120
Runway 29 Runway length 8000 ft Runway width 200 ft
Runway elevation 3542 ft Runway displaced threshold 0 ft Runway heading 300
Runway 17R Runway length 12675 ft Runway width 200 ft
Runway elevation 3556 ft Runway displaced threshold 0 ft Runway heading 180
Runway 35L Runway length 12675 ft Runway width 200 ft
Runway elevation 3543 ft Runway displaced threshold 0 ft Runway heading 360

 AIRPORT FREQUENCIES
Type ARR Name Calgary Ar Frequency 125.9 MHZ
Type CLD Name Calgary Cl Frequency 121.3 MHZ
Type PAL Name Edmonton C Frequency 133.3 MHZ
Type DEP Name Calgary De Frequency 119.8 MHZ
Type GND Name South Grou Frequency 121.9 MHZ
Type VFR ADV Name VFR Adviso Frequency 119.4 MHZ
Type RCO Name Edmonton R Frequency 123.375 MHZ
Type RMP Name Apron I, 1 Frequency 121.3 MHZ
Type TWR Name Calgary To Frequency 118.4 MHZ
Type GND Name North Grou Frequency 125.35 MHZ
Type ATIS Name Automatic Frequency 128.225 MHZ
Type PAL Name Edmonton C Frequency 124.525 MHZ
Type RMP Name Apron II, Frequency 129.7 MHZ
Type TWR Name Calgary To Frequency 236.6 MHZ

 AIRPORT NEAR NAVIGATION AIDS
Type NDB Name Calgary Frequency 344 KHZ
Type VOR-DME Name Calgary Frequency 116700 KHZ
Type NDB Name Blackfoot Frequency 233 KHZ
Type NDB Name Sarcee Frequency 254 KHZ

-